createdAt,value
2023-01-12T01:19:20.975Z,26.66
2023-01-12T01:21:20.884Z,26.65
2023-01-12T01:22:20.879Z,26.69
2023-01-12T01:23:20.840Z,26.71
2023-01-12T01:24:20.821Z,26.66
2023-01-12T01:25:20.840Z,26.65
2023-01-12T01:26:20.784Z,26.69
2023-01-12T01:27:20.771Z,26.66
2023-01-12T01:28:20.760Z,26.66
2023-01-12T01:29:20.731Z,26.70
2023-01-12T01:30:20.700Z,26.68
2023-01-12T01:31:20.771Z,26.68
2023-01-12T01:32:20.663Z,26.70
2023-01-12T01:33:20.675Z,26.68
2023-01-12T01:35:20.604Z,26.68
2023-01-12T01:36:20.600Z,26.66
2023-01-12T01:37:20.572Z,26.69
2023-01-12T01:38:20.549Z,26.66
2023-01-12T01:39:20.542Z,26.68
2023-01-12T01:40:20.506Z,26.66
2023-01-12T01:41:20.485Z,26.61
2023-01-12T01:42:20.487Z,26.68
2023-01-12T01:43:20.447Z,26.62
2023-01-12T01:44:20.430Z,26.59
2023-01-12T01:45:20.409Z,26.63
2023-01-12T01:47:20.377Z,26.65
2023-01-12T01:48:20.354Z,26.68
2023-01-12T01:49:20.354Z,26.65
2023-01-12T01:50:20.305Z,26.63
2023-01-12T01:51:20.283Z,26.70
2023-01-12T01:52:20.265Z,26.68
2023-01-12T01:53:20.248Z,26.60
2023-01-12T01:54:20.237Z,26.68
2023-01-12T01:56:20.171Z,26.69
2023-01-12T01:57:20.145Z,26.67
2023-01-12T01:58:20.116Z,26.66
2023-01-12T01:59:20.099Z,26.61
2023-01-12T02:00:20.097Z,26.65
2023-01-12T02:01:20.291Z,26.59
2023-01-12T02:02:20.133Z,26.62
2023-01-12T02:03:20.012Z,26.65
2023-01-12T02:04:19.988Z,26.61
2023-01-12T02:05:20.008Z,26.61
2023-01-12T02:06:19.942Z,26.62
2023-01-12T02:07:19.933Z,26.62
2023-01-12T02:08:19.904Z,26.53
2023-01-12T02:09:19.902Z,26.59
2023-01-12T02:10:19.865Z,26.63
2023-01-12T02:11:19.839Z,26.63
2023-01-12T02:12:19.819Z,26.61
2023-01-12T02:13:19.802Z,26.57
2023-01-12T02:14:19.779Z,26.62
2023-01-12T02:15:19.762Z,26.57
2023-01-12T02:16:19.779Z,26.61
2023-01-12T02:17:19.724Z,26.61
2023-01-12T02:18:19.692Z,26.62
2023-01-12T02:19:19.673Z,26.62
2023-01-12T02:20:19.662Z,26.61
2023-01-12T02:21:19.650Z,26.59
2023-01-12T02:22:19.603Z,26.53
2023-01-12T02:23:19.573Z,26.61
2023-01-12T02:24:19.565Z,26.55
2023-01-12T02:25:19.529Z,26.64
2023-01-12T02:26:19.516Z,26.59
2023-01-12T02:27:19.475Z,26.57
2023-01-12T02:28:19.452Z,26.56
2023-01-12T02:29:19.427Z,26.61
2023-01-12T02:30:19.401Z,26.55
2023-01-12T02:31:19.429Z,26.56
2023-01-12T02:32:19.360Z,26.55
2023-01-12T02:33:19.340Z,26.53
2023-01-12T02:34:19.343Z,26.53
2023-01-12T02:35:19.290Z,26.55
2023-01-12T02:36:19.266Z,26.56
2023-01-12T02:37:19.395Z,26.59
2023-01-12T02:38:19.225Z,26.55
2023-01-12T02:39:19.201Z,26.53
2023-01-12T02:40:19.181Z,26.53
2023-01-12T02:41:19.158Z,26.52
2023-01-12T02:42:19.134Z,26.59
2023-01-12T02:43:19.117Z,26.53
2023-01-12T02:44:19.112Z,26.53
2023-01-12T02:45:19.073Z,26.53
2023-01-12T02:46:19.098Z,26.50
2023-01-12T02:47:19.021Z,26.47
2023-01-12T02:48:18.998Z,26.52
2023-01-12T02:49:18.972Z,26.52
2023-01-12T02:50:18.947Z,26.49
2023-01-12T02:51:18.933Z,26.55
2023-01-12T02:52:18.903Z,26.53
2023-01-12T02:53:18.916Z,26.49
2023-01-12T02:54:18.858Z,26.53
2023-01-12T02:55:18.816Z,26.52
2023-01-12T02:56:18.797Z,26.50
2023-01-12T02:57:18.778Z,26.49
2023-01-12T02:58:18.757Z,26.49
2023-01-12T02:59:18.743Z,26.49
2023-01-12T03:00:18.697Z,26.50
2023-01-12T03:01:18.774Z,26.47
2023-01-12T03:02:18.656Z,26.47
